<?xml version="1.0" encoding="UTF-8" standalone="no" ?>
<gpx xmlns="http://www.topografix.com/GPX/1/1" xmlns:xsi="http://www.w3.org/2001/XMLSchema-instance" xsi:schemaLocation="http://www.topografix.com/GPX/1/1 http://www.topografix.com/GPX/1/1/gpx.xsd" version="1.1" creator="VisuGPX - https://www.visugpx.com">
  <metadata>
    <name>Domératoise 2016</name>
    <desc><![CDATA[Circuit Vélo Tout Terrain 60 Kilomètres.]]></desc>
  </metadata>
  <trk>
    <name><![CDATA[58.00_Domeratoise 2016]]></name>
    <trkseg>
      <trkpt lat="46.36615" lon="2.57984">
        <ele>222</ele>
        <time>2016-10-03T19:07:31Z</time>
      </trkpt>
      <trkpt lat="46.36581" lon="2.57981">
        <ele>223</ele>
        <time>2016-10-03T19:09:31Z</time>
      </trkpt>
      <trkpt lat="46.36574" lon="2.57904">
        <ele>225</ele>
        <time>2016-10-03T19:11:31Z</time>
      </trkpt>
      <trkpt lat="46.36631" lon="2.57824">
        <ele>226</ele>
        <time>2016-10-03T19:13:31Z</time>
      </trkpt>
      <trkpt lat="46.36585" lon="2.57668">
        <ele>226</ele>
        <time>2016-10-03T19:15:31Z</time>
      </trkpt>
      <trkpt lat="46.3673" lon="2.57502">
        <ele>226</ele>
        <time>2016-10-03T19:17:31Z</time>
      </trkpt>
      <trkpt lat="46.3666" lon="2.57266">
        <ele>227</ele>
        <time>2016-10-03T19:19:31Z</time>
      </trkpt>
      <trkpt lat="46.36621" lon="2.57255">
        <ele>227</ele>
        <time>2016-10-03T19:21:31Z</time>
      </trkpt>
      <trkpt lat="46.36494" lon="2.5731">
        <ele>227</ele>
        <time>2016-10-03T19:23:31Z</time>
      </trkpt>
      <trkpt lat="46.36468" lon="2.5731">
        <ele>228</ele>
        <time>2016-10-03T19:25:31Z</time>
      </trkpt>
      <trkpt lat="46.36408" lon="2.57264">
        <ele>228</ele>
        <time>2016-10-03T19:27:31Z</time>
      </trkpt>
      <trkpt lat="46.36367" lon="2.57262">
        <ele>228</ele>
        <time>2016-10-03T19:29:31Z</time>
      </trkpt>
      <trkpt lat="46.36342" lon="2.57275">
        <ele>229</ele>
        <time>2016-10-03T19:31:31Z</time>
      </trkpt>
      <trkpt lat="46.36295" lon="2.57257">
        <ele>229</ele>
        <time>2016-10-03T19:33:31Z</time>
      </trkpt>
      <trkpt lat="46.36331" lon="2.57108">
        <ele>229</ele>
        <time>2016-10-03T19:35:31Z</time>
      </trkpt>
      <trkpt lat="46.36226" lon="2.57101">
        <ele>229</ele>
        <time>2016-10-03T19:37:31Z</time>
      </trkpt>
      <trkpt lat="46.36237" lon="2.57008">
        <ele>232</ele>
        <time>2016-10-03T19:39:31Z</time>
      </trkpt>
      <trkpt lat="46.36219" lon="2.5689">
        <ele>231</ele>
        <time>2016-10-03T19:41:31Z</time>
      </trkpt>
      <trkpt lat="46.36208" lon="2.5662">
        <ele>234</ele>
        <time>2016-10-03T19:43:31Z</time>
      </trkpt>
      <trkpt lat="46.36211" lon="2.564">
        <ele>235</ele>
        <time>2016-10-03T19:45:31Z</time>
      </trkpt>
      <trkpt lat="46.36147" lon="2.56345">
        <ele>235</ele>
        <time>2016-10-03T19:47:31Z</time>
      </trkpt>
      <trkpt lat="46.35998" lon="2.56198">
        <ele>238</ele>
        <time>2016-10-03T19:49:31Z</time>
      </trkpt>
      <trkpt lat="46.35906" lon="2.56072">
        <ele>242</ele>
        <time>2016-10-03T19:51:31Z</time>
      </trkpt>
      <trkpt lat="46.36012" lon="2.55846">
        <ele>234</ele>
        <time>2016-10-03T19:53:31Z</time>
      </trkpt>
      <trkpt lat="46.36044" lon="2.55716">
        <ele>229</ele>
        <time>2016-10-03T19:55:31Z</time>
      </trkpt>
      <trkpt lat="46.36083" lon="2.5554">
        <ele>227</ele>
        <time>2016-10-03T19:57:31Z</time>
      </trkpt>
      <trkpt lat="46.36097" lon="2.55446">
        <ele>227</ele>
        <time>2016-10-03T19:59:31Z</time>
      </trkpt>
      <trkpt lat="46.36129" lon="2.55261">
        <ele>226</ele>
        <time>2016-10-03T20:01:31Z</time>
      </trkpt>
      <trkpt lat="46.36166" lon="2.55151">
        <ele>224</ele>
        <time>2016-10-03T20:03:31Z</time>
      </trkpt>
      <trkpt lat="46.36214" lon="2.55065">
        <ele>223</ele>
        <time>2016-10-03T20:05:31Z</time>
      </trkpt>
      <trkpt lat="46.36251" lon="2.54961">
        <ele>221</ele>
        <time>2016-10-03T20:07:31Z</time>
      </trkpt>
      <trkpt lat="46.36288" lon="2.5487">
        <ele>222</ele>
        <time>2016-10-03T20:09:31Z</time>
      </trkpt>
      <trkpt lat="46.3633" lon="2.54793">
        <ele>223</ele>
        <time>2016-10-03T20:11:31Z</time>
      </trkpt>
      <trkpt lat="46.36359" lon="2.54718">
        <ele>223</ele>
        <time>2016-10-03T20:13:31Z</time>
      </trkpt>
      <trkpt lat="46.36392" lon="2.54659">
        <ele>223</ele>
        <time>2016-10-03T20:15:31Z</time>
      </trkpt>
      <trkpt lat="46.36439" lon="2.54609">
        <ele>223</ele>
        <time>2016-10-03T20:17:31Z</time>
      </trkpt>
      <trkpt lat="46.36466" lon="2.5455">
        <ele>223</ele>
        <time>2016-10-03T20:19:31Z</time>
      </trkpt>
      <trkpt lat="46.36516" lon="2.54446">
        <ele>224</ele>
        <time>2016-10-03T20:21:31Z</time>
      </trkpt>
      <trkpt lat="46.36549" lon="2.54368">
        <ele>226</ele>
        <time>2016-10-03T20:23:31Z</time>
      </trkpt>
      <trkpt lat="46.36573" lon="2.54355">
        <ele>227</ele>
        <time>2016-10-03T20:25:31Z</time>
      </trkpt>
      <trkpt lat="46.36765" lon="2.54016">
        <ele>233</ele>
        <time>2016-10-03T20:27:31Z</time>
      </trkpt>
      <trkpt lat="46.36829" lon="2.53921">
        <ele>234</ele>
        <time>2016-10-03T20:29:31Z</time>
      </trkpt>
      <trkpt lat="46.36902" lon="2.53842">
        <ele>233</ele>
        <time>2016-10-03T20:31:31Z</time>
      </trkpt>
      <trkpt lat="46.36968" lon="2.53779">
        <ele>226</ele>
        <time>2016-10-03T20:33:31Z</time>
      </trkpt>
      <trkpt lat="46.37038" lon="2.53728">
        <ele>220</ele>
        <time>2016-10-03T20:35:31Z</time>
      </trkpt>
      <trkpt lat="46.371" lon="2.53654">
        <ele>217</ele>
        <time>2016-10-03T20:37:31Z</time>
      </trkpt>
      <trkpt lat="46.3717" lon="2.53568">
        <ele>216</ele>
        <time>2016-10-03T20:39:31Z</time>
      </trkpt>
      <trkpt lat="46.37256" lon="2.53459">
        <ele>216</ele>
        <time>2016-10-03T20:41:31Z</time>
      </trkpt>
      <trkpt lat="46.37314" lon="2.53366">
        <ele>217</ele>
        <time>2016-10-03T20:43:31Z</time>
      </trkpt>
      <trkpt lat="46.37352" lon="2.53314">
        <ele>218</ele>
        <time>2016-10-03T20:45:31Z</time>
      </trkpt>
      <trkpt lat="46.37383" lon="2.53233">
        <ele>222</ele>
        <time>2016-10-03T20:47:31Z</time>
      </trkpt>
      <trkpt lat="46.37497" lon="2.52766">
        <ele>230</ele>
        <time>2016-10-03T20:49:31Z</time>
      </trkpt>
      <trkpt lat="46.37609" lon="2.52669">
        <ele>227</ele>
        <time>2016-10-03T20:51:31Z</time>
      </trkpt>
      <trkpt lat="46.37718" lon="2.52594">
        <ele>223</ele>
        <time>2016-10-03T20:53:31Z</time>
      </trkpt>
      <trkpt lat="46.37806" lon="2.52542">
        <ele>221</ele>
        <time>2016-10-03T20:55:31Z</time>
      </trkpt>
      <trkpt lat="46.37867" lon="2.52465">
        <ele>224</ele>
        <time>2016-10-03T20:57:31Z</time>
      </trkpt>
      <trkpt lat="46.3803" lon="2.52326">
        <ele>226</ele>
        <time>2016-10-03T20:59:31Z</time>
      </trkpt>
      <trkpt lat="46.38178" lon="2.52317">
        <ele>224</ele>
        <time>2016-10-03T21:01:31Z</time>
      </trkpt>
      <trkpt lat="46.38231" lon="2.5228">
        <ele>222</ele>
        <time>2016-10-03T21:03:31Z</time>
      </trkpt>
      <trkpt lat="46.38399" lon="2.52148">
        <ele>213</ele>
        <time>2016-10-03T21:05:31Z</time>
      </trkpt>
      <trkpt lat="46.38439" lon="2.5213">
        <ele>212</ele>
        <time>2016-10-03T21:07:31Z</time>
      </trkpt>
      <trkpt lat="46.38545" lon="2.52183">
        <ele>211</ele>
        <time>2016-10-03T21:09:31Z</time>
      </trkpt>
      <trkpt lat="46.38656" lon="2.52261">
        <ele>214</ele>
        <time>2016-10-03T21:11:31Z</time>
      </trkpt>
      <trkpt lat="46.38729" lon="2.52294">
        <ele>214</ele>
        <time>2016-10-03T21:13:31Z</time>
      </trkpt>
      <trkpt lat="46.38801" lon="2.52256">
        <ele>214</ele>
        <time>2016-10-03T21:15:31Z</time>
      </trkpt>
      <trkpt lat="46.38904" lon="2.52181">
        <ele>216</ele>
        <time>2016-10-03T21:17:31Z</time>
      </trkpt>
      <trkpt lat="46.39038" lon="2.52243">
        <ele>224</ele>
        <time>2016-10-03T21:19:31Z</time>
      </trkpt>
      <trkpt lat="46.39162" lon="2.52291">
        <ele>224</ele>
        <time>2016-10-03T21:21:31Z</time>
      </trkpt>
      <trkpt lat="46.39246" lon="2.52327">
        <ele>221</ele>
        <time>2016-10-03T21:23:31Z</time>
      </trkpt>
      <trkpt lat="46.39426" lon="2.52312">
        <ele>218</ele>
        <time>2016-10-03T21:25:31Z</time>
      </trkpt>
      <trkpt lat="46.39518" lon="2.52322">
        <ele>221</ele>
        <time>2016-10-03T21:27:31Z</time>
      </trkpt>
      <trkpt lat="46.39586" lon="2.52288">
        <ele>225</ele>
        <time>2016-10-03T21:29:31Z</time>
      </trkpt>
      <trkpt lat="46.3966" lon="2.52243">
        <ele>224</ele>
        <time>2016-10-03T21:31:31Z</time>
      </trkpt>
      <trkpt lat="46.39731" lon="2.52233">
        <ele>222</ele>
        <time>2016-10-03T21:33:31Z</time>
      </trkpt>
      <trkpt lat="46.39787" lon="2.52215">
        <ele>222</ele>
        <time>2016-10-03T21:35:31Z</time>
      </trkpt>
      <trkpt lat="46.39834" lon="2.52174">
        <ele>222</ele>
        <time>2016-10-03T21:37:31Z</time>
      </trkpt>
      <trkpt lat="46.3992" lon="2.52091">
        <ele>225</ele>
        <time>2016-10-03T21:39:31Z</time>
      </trkpt>
      <trkpt lat="46.3999" lon="2.52006">
        <ele>230</ele>
        <time>2016-10-03T21:41:31Z</time>
      </trkpt>
      <trkpt lat="46.40024" lon="2.51965">
        <ele>232</ele>
        <time>2016-10-03T21:43:31Z</time>
      </trkpt>
      <trkpt lat="46.40059" lon="2.51904">
        <ele>234</ele>
        <time>2016-10-03T21:45:31Z</time>
      </trkpt>
      <trkpt lat="46.40132" lon="2.51829">
        <ele>237</ele>
        <time>2016-10-03T21:47:31Z</time>
      </trkpt>
      <trkpt lat="46.40293" lon="2.51732">
        <ele>240</ele>
        <time>2016-10-03T21:49:31Z</time>
      </trkpt>
      <trkpt lat="46.4048" lon="2.51659">
        <ele>242</ele>
        <time>2016-10-03T21:51:31Z</time>
      </trkpt>
      <trkpt lat="46.40527" lon="2.51623">
        <ele>241</ele>
        <time>2016-10-03T21:53:31Z</time>
      </trkpt>
      <trkpt lat="46.40631" lon="2.51594">
        <ele>239</ele>
        <time>2016-10-03T21:55:31Z</time>
      </trkpt>
      <trkpt lat="46.40778" lon="2.5158">
        <ele>238</ele>
        <time>2016-10-03T21:57:31Z</time>
      </trkpt>
      <trkpt lat="46.40947" lon="2.51603">
        <ele>241</ele>
        <time>2016-10-03T21:59:31Z</time>
      </trkpt>
      <trkpt lat="46.4102" lon="2.51617">
        <ele>241</ele>
        <time>2016-10-03T22:01:31Z</time>
      </trkpt>
      <trkpt lat="46.41087" lon="2.51612">
        <ele>241</ele>
        <time>2016-10-03T22:03:31Z</time>
      </trkpt>
      <trkpt lat="46.41211" lon="2.51612">
        <ele>243</ele>
        <time>2016-10-03T22:05:31Z</time>
      </trkpt>
      <trkpt lat="46.41294" lon="2.51595">
        <ele>244</ele>
        <time>2016-10-03T22:07:31Z</time>
      </trkpt>
      <trkpt lat="46.41331" lon="2.51536">
        <ele>246</ele>
        <time>2016-10-03T22:09:31Z</time>
      </trkpt>
      <trkpt lat="46.41364" lon="2.51436">
        <ele>247</ele>
        <time>2016-10-03T22:11:31Z</time>
      </trkpt>
      <trkpt lat="46.41671" lon="2.50707">
        <ele>245</ele>
        <time>2016-10-03T22:13:31Z</time>
      </trkpt>
      <trkpt lat="46.41689" lon="2.50675">
        <ele>245</ele>
        <time>2016-10-03T22:15:31Z</time>
      </trkpt>
      <trkpt lat="46.41756" lon="2.50618">
        <ele>245</ele>
        <time>2016-10-03T22:17:31Z</time>
      </trkpt>
      <trkpt lat="46.41879" lon="2.50771">
        <ele>237</ele>
        <time>2016-10-03T22:19:31Z</time>
      </trkpt>
      <trkpt lat="46.4192" lon="2.50608">
        <ele>235</ele>
        <time>2016-10-03T22:21:31Z</time>
      </trkpt>
      <trkpt lat="46.4194" lon="2.50517">
        <ele>235</ele>
        <time>2016-10-03T22:23:31Z</time>
      </trkpt>
      <trkpt lat="46.42001" lon="2.50472">
        <ele>233</ele>
        <time>2016-10-03T22:25:31Z</time>
      </trkpt>
      <trkpt lat="46.42041" lon="2.50467">
        <ele>236</ele>
        <time>2016-10-03T22:27:31Z</time>
      </trkpt>
      <trkpt lat="46.42084" lon="2.50519">
        <ele>235</ele>
        <time>2016-10-03T22:29:31Z</time>
      </trkpt>
      <trkpt lat="46.42084" lon="2.5047">
        <ele>238</ele>
        <time>2016-10-03T22:31:31Z</time>
      </trkpt>
      <trkpt lat="46.42152" lon="2.50435">
        <ele>247</ele>
        <time>2016-10-03T22:33:31Z</time>
      </trkpt>
      <trkpt lat="46.42185" lon="2.50435">
        <ele>249</ele>
        <time>2016-10-03T22:35:31Z</time>
      </trkpt>
      <trkpt lat="46.4221" lon="2.50394">
        <ele>252</ele>
        <time>2016-10-03T22:37:31Z</time>
      </trkpt>
      <trkpt lat="46.42252" lon="2.5036">
        <ele>257</ele>
        <time>2016-10-03T22:39:31Z</time>
      </trkpt>
      <trkpt lat="46.42292" lon="2.50308">
        <ele>260</ele>
        <time>2016-10-03T22:41:31Z</time>
      </trkpt>
      <trkpt lat="46.42355" lon="2.50299">
        <ele>261</ele>
        <time>2016-10-03T22:43:31Z</time>
      </trkpt>
      <trkpt lat="46.42461" lon="2.50296">
        <ele>263</ele>
        <time>2016-10-03T22:45:31Z</time>
      </trkpt>
      <trkpt lat="46.42518" lon="2.50361">
        <ele>264</ele>
        <time>2016-10-03T22:47:31Z</time>
      </trkpt>
      <trkpt lat="46.42587" lon="2.50513">
        <ele>265</ele>
        <time>2016-10-03T22:49:31Z</time>
      </trkpt>
      <trkpt lat="46.42603" lon="2.50471">
        <ele>267</ele>
        <time>2016-10-03T22:51:31Z</time>
      </trkpt>
      <trkpt lat="46.42619" lon="2.50507">
        <ele>267</ele>
        <time>2016-10-03T22:53:31Z</time>
      </trkpt>
      <trkpt lat="46.42831" lon="2.50471">
        <ele>283</ele>
        <time>2016-10-03T22:55:31Z</time>
      </trkpt>
      <trkpt lat="46.4296" lon="2.50406">
        <ele>281</ele>
        <time>2016-10-03T22:57:31Z</time>
      </trkpt>
      <trkpt lat="46.43504" lon="2.50448">
        <ele>263</ele>
        <time>2016-10-03T22:59:31Z</time>
      </trkpt>
      <trkpt lat="46.43613" lon="2.5047">
        <ele>271</ele>
        <time>2016-10-03T23:01:31Z</time>
      </trkpt>
      <trkpt lat="46.43722" lon="2.505">
        <ele>276</ele>
        <time>2016-10-03T23:03:31Z</time>
      </trkpt>
      <trkpt lat="46.43988" lon="2.50514">
        <ele>274</ele>
        <time>2016-10-03T23:05:31Z</time>
      </trkpt>
      <trkpt lat="46.44131" lon="2.50571">
        <ele>276</ele>
        <time>2016-10-03T23:07:31Z</time>
      </trkpt>
      <trkpt lat="46.44253" lon="2.50573">
        <ele>279</ele>
        <time>2016-10-03T23:09:31Z</time>
      </trkpt>
      <trkpt lat="46.44334" lon="2.50582">
        <ele>276</ele>
        <time>2016-10-03T23:11:31Z</time>
      </trkpt>
      <trkpt lat="46.44412" lon="2.50558">
        <ele>277</ele>
        <time>2016-10-03T23:13:31Z</time>
      </trkpt>
      <trkpt lat="46.44566" lon="2.50549">
        <ele>280</ele>
        <time>2016-10-03T23:15:31Z</time>
      </trkpt>
      <trkpt lat="46.44636" lon="2.50576">
        <ele>281</ele>
        <time>2016-10-03T23:17:31Z</time>
      </trkpt>
      <trkpt lat="46.44876" lon="2.50658">
        <ele>277</ele>
        <time>2016-10-03T23:19:31Z</time>
      </trkpt>
      <trkpt lat="46.45053" lon="2.50656">
        <ele>273</ele>
        <time>2016-10-03T23:21:31Z</time>
      </trkpt>
      <trkpt lat="46.45129" lon="2.50747">
        <ele>273</ele>
        <time>2016-10-03T23:23:31Z</time>
      </trkpt>
      <trkpt lat="46.45219" lon="2.50776">
        <ele>275</ele>
        <time>2016-10-03T23:25:31Z</time>
      </trkpt>
      <trkpt lat="46.45306" lon="2.50788">
        <ele>276</ele>
        <time>2016-10-03T23:27:31Z</time>
      </trkpt>
      <trkpt lat="46.45484" lon="2.50769">
        <ele>275</ele>
        <time>2016-10-03T23:29:31Z</time>
      </trkpt>
      <trkpt lat="46.4574" lon="2.50787">
        <ele>268</ele>
        <time>2016-10-03T23:31:31Z</time>
      </trkpt>
      <trkpt lat="46.45859" lon="2.50744">
        <ele>264</ele>
        <time>2016-10-03T23:33:31Z</time>
      </trkpt>
      <trkpt lat="46.45943" lon="2.50796">
        <ele>264</ele>
        <time>2016-10-03T23:35:31Z</time>
      </trkpt>
      <trkpt lat="46.46112" lon="2.50763">
        <ele>280</ele>
        <time>2016-10-03T23:37:31Z</time>
      </trkpt>
      <trkpt lat="46.46181" lon="2.50695">
        <ele>289</ele>
        <time>2016-10-03T23:39:31Z</time>
      </trkpt>
      <trkpt lat="46.46254" lon="2.50642">
        <ele>295</ele>
        <time>2016-10-03T23:41:31Z</time>
      </trkpt>
      <trkpt lat="46.46212" lon="2.50888">
        <ele>292</ele>
        <time>2016-10-03T23:43:31Z</time>
      </trkpt>
      <trkpt lat="46.46204" lon="2.50951">
        <ele>292</ele>
        <time>2016-10-03T23:45:31Z</time>
      </trkpt>
      <trkpt lat="46.46135" lon="2.5123">
        <ele>284</ele>
        <time>2016-10-03T23:47:31Z</time>
      </trkpt>
      <trkpt lat="46.46034" lon="2.51424">
        <ele>273</ele>
        <time>2016-10-03T23:49:31Z</time>
      </trkpt>
      <trkpt lat="46.46026" lon="2.51589">
        <ele>268</ele>
        <time>2016-10-03T23:51:31Z</time>
      </trkpt>
      <trkpt lat="46.46136" lon="2.51489">
        <ele>279</ele>
        <time>2016-10-03T23:53:31Z</time>
      </trkpt>
      <trkpt lat="46.46181" lon="2.5148">
        <ele>284</ele>
        <time>2016-10-03T23:55:31Z</time>
      </trkpt>
      <trkpt lat="46.46319" lon="2.51383">
        <ele>293</ele>
        <time>2016-10-03T23:57:31Z</time>
      </trkpt>
      <trkpt lat="46.46372" lon="2.51368">
        <ele>292</ele>
        <time>2016-10-03T23:59:31Z</time>
      </trkpt>
      <trkpt lat="46.46445" lon="2.51343">
        <ele>289</ele>
        <time>2016-10-04T00:01:31Z</time>
      </trkpt>
      <trkpt lat="46.46517" lon="2.51803">
        <ele>289</ele>
        <time>2016-10-04T00:03:31Z</time>
      </trkpt>
      <trkpt lat="46.46526" lon="2.51917">
        <ele>289</ele>
        <time>2016-10-04T00:05:31Z</time>
      </trkpt>
      <trkpt lat="46.47125" lon="2.51994">
        <ele>288</ele>
        <time>2016-10-04T00:07:31Z</time>
      </trkpt>
      <trkpt lat="46.47166" lon="2.52173">
        <ele>288</ele>
        <time>2016-10-04T00:09:31Z</time>
      </trkpt>
      <trkpt lat="46.47243" lon="2.52336">
        <ele>287</ele>
        <time>2016-10-04T00:11:31Z</time>
      </trkpt>
      <trkpt lat="46.47132" lon="2.52592">
        <ele>284</ele>
        <time>2016-10-04T00:13:31Z</time>
      </trkpt>
      <trkpt lat="46.47095" lon="2.52696">
        <ele>283</ele>
        <time>2016-10-04T00:15:31Z</time>
      </trkpt>
      <trkpt lat="46.4722" lon="2.52983">
        <ele>280</ele>
        <time>2016-10-04T00:17:31Z</time>
      </trkpt>
      <trkpt lat="46.47301" lon="2.53146">
        <ele>281</ele>
        <time>2016-10-04T00:19:31Z</time>
      </trkpt>
      <trkpt lat="46.47427" lon="2.53418">
        <ele>283</ele>
        <time>2016-10-04T00:21:31Z</time>
      </trkpt>
      <trkpt lat="46.47477" lon="2.53548">
        <ele>280</ele>
        <time>2016-10-04T00:23:31Z</time>
      </trkpt>
      <trkpt lat="46.47738" lon="2.53353">
        <ele>268</ele>
        <time>2016-10-04T00:25:31Z</time>
      </trkpt>
      <trkpt lat="46.47799" lon="2.53322">
        <ele>265</ele>
        <time>2016-10-04T00:27:31Z</time>
      </trkpt>
      <trkpt lat="46.47847" lon="2.53292">
        <ele>263</ele>
        <time>2016-10-04T00:29:31Z</time>
      </trkpt>
      <trkpt lat="46.4788" lon="2.53285">
        <ele>261</ele>
        <time>2016-10-04T00:31:31Z</time>
      </trkpt>
      <trkpt lat="46.47745" lon="2.53634">
        <ele>272</ele>
        <time>2016-10-04T00:33:31Z</time>
      </trkpt>
      <trkpt lat="46.47689" lon="2.53766">
        <ele>270</ele>
        <time>2016-10-04T00:35:31Z</time>
      </trkpt>
      <trkpt lat="46.47602" lon="2.53854">
        <ele>271</ele>
        <time>2016-10-04T00:37:31Z</time>
      </trkpt>
      <trkpt lat="46.47689" lon="2.53938">
        <ele>269</ele>
        <time>2016-10-04T00:39:31Z</time>
      </trkpt>
      <trkpt lat="46.47696" lon="2.53988">
        <ele>268</ele>
        <time>2016-10-04T00:41:31Z</time>
      </trkpt>
      <trkpt lat="46.47678" lon="2.54078">
        <ele>268</ele>
        <time>2016-10-04T00:43:31Z</time>
      </trkpt>
      <trkpt lat="46.47701" lon="2.54194">
        <ele>268</ele>
        <time>2016-10-04T00:45:31Z</time>
      </trkpt>
      <trkpt lat="46.47735" lon="2.54301">
        <ele>267</ele>
        <time>2016-10-04T00:47:31Z</time>
      </trkpt>
      <trkpt lat="46.47744" lon="2.54391">
        <ele>268</ele>
        <time>2016-10-04T00:49:31Z</time>
      </trkpt>
      <trkpt lat="46.47772" lon="2.54493">
        <ele>267</ele>
        <time>2016-10-04T00:51:31Z</time>
      </trkpt>
      <trkpt lat="46.47973" lon="2.54254">
        <ele>261</ele>
        <time>2016-10-04T00:53:31Z</time>
      </trkpt>
      <trkpt lat="46.47967" lon="2.53941">
        <ele>265</ele>
        <time>2016-10-04T00:55:31Z</time>
      </trkpt>
      <trkpt lat="46.48033" lon="2.53892">
        <ele>263</ele>
        <time>2016-10-04T00:57:31Z</time>
      </trkpt>
      <trkpt lat="46.48118" lon="2.53841">
        <ele>254</ele>
        <time>2016-10-04T00:59:31Z</time>
      </trkpt>
      <trkpt lat="46.48189" lon="2.53764">
        <ele>248</ele>
        <time>2016-10-04T01:01:31Z</time>
      </trkpt>
      <trkpt lat="46.48234" lon="2.53714">
        <ele>246</ele>
        <time>2016-10-04T01:03:31Z</time>
      </trkpt>
      <trkpt lat="46.48278" lon="2.53678">
        <ele>247</ele>
        <time>2016-10-04T01:05:31Z</time>
      </trkpt>
      <trkpt lat="46.48318" lon="2.53622">
        <ele>250</ele>
        <time>2016-10-04T01:07:31Z</time>
      </trkpt>
      <trkpt lat="46.48318" lon="2.53622">
        <ele>250</ele>
        <time>2016-10-04T01:09:31Z</time>
      </trkpt>
      <trkpt lat="46.48376" lon="2.53581">
        <ele>254</ele>
        <time>2016-10-04T01:11:31Z</time>
      </trkpt>
      <trkpt lat="46.48447" lon="2.53538">
        <ele>257</ele>
        <time>2016-10-04T01:13:31Z</time>
      </trkpt>
      <trkpt lat="46.48496" lon="2.5348">
        <ele>260</ele>
        <time>2016-10-04T01:15:31Z</time>
      </trkpt>
      <trkpt lat="46.48534" lon="2.53362">
        <ele>264</ele>
        <time>2016-10-04T01:17:31Z</time>
      </trkpt>
      <trkpt lat="46.48622" lon="2.53257">
        <ele>268</ele>
        <time>2016-10-04T01:19:31Z</time>
      </trkpt>
      <trkpt lat="46.4867" lon="2.53173">
        <ele>268</ele>
        <time>2016-10-04T01:21:31Z</time>
      </trkpt>
      <trkpt lat="46.48747" lon="2.53003">
        <ele>269</ele>
        <time>2016-10-04T01:23:31Z</time>
      </trkpt>
      <trkpt lat="46.48428" lon="2.52672">
        <ele>279</ele>
        <time>2016-10-04T01:25:31Z</time>
      </trkpt>
      <trkpt lat="46.48306" lon="2.52595">
        <ele>279</ele>
        <time>2016-10-04T01:27:31Z</time>
      </trkpt>
      <trkpt lat="46.48333" lon="2.5234">
        <ele>283</ele>
        <time>2016-10-04T01:29:31Z</time>
      </trkpt>
      <trkpt lat="46.4834" lon="2.52143">
        <ele>285</ele>
        <time>2016-10-04T01:31:31Z</time>
      </trkpt>
      <trkpt lat="46.48325" lon="2.51843">
        <ele>291</ele>
        <time>2016-10-04T01:33:31Z</time>
      </trkpt>
      <trkpt lat="46.48316" lon="2.51673">
        <ele>295</ele>
        <time>2016-10-04T01:35:31Z</time>
      </trkpt>
      <trkpt lat="46.48299" lon="2.5146">
        <ele>297</ele>
        <time>2016-10-04T01:37:31Z</time>
      </trkpt>
      <trkpt lat="46.48216" lon="2.51283">
        <ele>302</ele>
        <time>2016-10-04T01:39:31Z</time>
      </trkpt>
      <trkpt lat="46.48177" lon="2.51103">
        <ele>302</ele>
        <time>2016-10-04T01:41:31Z</time>
      </trkpt>
      <trkpt lat="46.48179" lon="2.50958">
        <ele>304</ele>
        <time>2016-10-04T01:43:31Z</time>
      </trkpt>
      <trkpt lat="46.4823" lon="2.50949">
        <ele>303</ele>
        <time>2016-10-04T01:45:31Z</time>
      </trkpt>
      <trkpt lat="46.48371" lon="2.50509">
        <ele>292</ele>
        <time>2016-10-04T01:47:31Z</time>
      </trkpt>
      <trkpt lat="46.4844" lon="2.50361">
        <ele>285</ele>
        <time>2016-10-04T01:49:31Z</time>
      </trkpt>
      <trkpt lat="46.48478" lon="2.50246">
        <ele>281</ele>
        <time>2016-10-04T01:51:31Z</time>
      </trkpt>
      <trkpt lat="46.4852" lon="2.50128">
        <ele>278</ele>
        <time>2016-10-04T01:53:31Z</time>
      </trkpt>
      <trkpt lat="46.48564" lon="2.50076">
        <ele>276</ele>
        <time>2016-10-04T01:55:31Z</time>
      </trkpt>
      <trkpt lat="46.48563" lon="2.50019">
        <ele>275</ele>
        <time>2016-10-04T01:57:31Z</time>
      </trkpt>
      <trkpt lat="46.48344" lon="2.49876">
        <ele>273</ele>
        <time>2016-10-04T01:59:31Z</time>
      </trkpt>
      <trkpt lat="46.48346" lon="2.49808">
        <ele>270</ele>
        <time>2016-10-04T02:01:31Z</time>
      </trkpt>
      <trkpt lat="46.48398" lon="2.49645">
        <ele>258</ele>
        <time>2016-10-04T02:03:31Z</time>
      </trkpt>
      <trkpt lat="46.48396" lon="2.49593">
        <ele>254</ele>
        <time>2016-10-04T02:05:31Z</time>
      </trkpt>
      <trkpt lat="46.48354" lon="2.49379">
        <ele>250</ele>
        <time>2016-10-04T02:07:31Z</time>
      </trkpt>
      <trkpt lat="46.4837" lon="2.4935">
        <ele>252</ele>
        <time>2016-10-04T02:09:31Z</time>
      </trkpt>
      <trkpt lat="46.48455" lon="2.49325">
        <ele>256</ele>
        <time>2016-10-04T02:11:31Z</time>
      </trkpt>
      <trkpt lat="46.48473" lon="2.49262">
        <ele>260</ele>
        <time>2016-10-04T02:13:31Z</time>
      </trkpt>
      <trkpt lat="46.48468" lon="2.49187">
        <ele>264</ele>
        <time>2016-10-04T02:15:31Z</time>
      </trkpt>
      <trkpt lat="46.48486" lon="2.49076">
        <ele>267</ele>
        <time>2016-10-04T02:17:31Z</time>
      </trkpt>
      <trkpt lat="46.48165" lon="2.48871">
        <ele>259</ele>
        <time>2016-10-04T02:19:31Z</time>
      </trkpt>
      <trkpt lat="46.47747" lon="2.48723">
        <ele>256</ele>
        <time>2016-10-04T02:21:31Z</time>
      </trkpt>
      <trkpt lat="46.47892" lon="2.48423">
        <ele>269</ele>
        <time>2016-10-04T02:23:31Z</time>
      </trkpt>
      <trkpt lat="46.48016" lon="2.48295">
        <ele>279</ele>
        <time>2016-10-04T02:25:31Z</time>
      </trkpt>
      <trkpt lat="46.48102" lon="2.48097">
        <ele>283</ele>
        <time>2016-10-04T02:27:31Z</time>
      </trkpt>
      <trkpt lat="46.48151" lon="2.47894">
        <ele>286</ele>
        <time>2016-10-04T02:29:31Z</time>
      </trkpt>
      <trkpt lat="46.48148" lon="2.47707">
        <ele>292</ele>
        <time>2016-10-04T02:31:31Z</time>
      </trkpt>
      <trkpt lat="46.48113" lon="2.47536">
        <ele>294</ele>
        <time>2016-10-04T02:33:31Z</time>
      </trkpt>
      <trkpt lat="46.48091" lon="2.47457">
        <ele>296</ele>
        <time>2016-10-04T02:35:31Z</time>
      </trkpt>
      <trkpt lat="46.48123" lon="2.47285">
        <ele>297</ele>
        <time>2016-10-04T02:37:31Z</time>
      </trkpt>
      <trkpt lat="46.48108" lon="2.47177">
        <ele>293</ele>
        <time>2016-10-04T02:39:31Z</time>
      </trkpt>
      <trkpt lat="46.48048" lon="2.46844">
        <ele>294</ele>
        <time>2016-10-04T02:41:31Z</time>
      </trkpt>
      <trkpt lat="46.47963" lon="2.46769">
        <ele>296</ele>
        <time>2016-10-04T02:43:31Z</time>
      </trkpt>
      <trkpt lat="46.47748" lon="2.46754">
        <ele>283</ele>
        <time>2016-10-04T02:45:31Z</time>
      </trkpt>
      <trkpt lat="46.47623" lon="2.46798">
        <ele>277</ele>
        <time>2016-10-04T02:47:31Z</time>
      </trkpt>
      <trkpt lat="46.47606" lon="2.46854">
        <ele>277</ele>
        <time>2016-10-04T02:49:31Z</time>
      </trkpt>
      <trkpt lat="46.4755" lon="2.46838">
        <ele>278</ele>
        <time>2016-10-04T02:51:31Z</time>
      </trkpt>
      <trkpt lat="46.47477" lon="2.46847">
        <ele>278</ele>
        <time>2016-10-04T02:53:31Z</time>
      </trkpt>
      <trkpt lat="46.47473" lon="2.46803">
        <ele>279</ele>
        <time>2016-10-04T02:55:31Z</time>
      </trkpt>
      <trkpt lat="46.47335" lon="2.4684">
        <ele>273</ele>
        <time>2016-10-04T02:57:31Z</time>
      </trkpt>
      <trkpt lat="46.47217" lon="2.46938">
        <ele>286</ele>
        <time>2016-10-04T02:59:31Z</time>
      </trkpt>
      <trkpt lat="46.47161" lon="2.46771">
        <ele>288</ele>
        <time>2016-10-04T03:01:31Z</time>
      </trkpt>
      <trkpt lat="46.47101" lon="2.46646">
        <ele>289</ele>
        <time>2016-10-04T03:03:31Z</time>
      </trkpt>
      <trkpt lat="46.46953" lon="2.46476">
        <ele>295</ele>
        <time>2016-10-04T03:05:31Z</time>
      </trkpt>
      <trkpt lat="46.46871" lon="2.46264">
        <ele>299</ele>
        <time>2016-10-04T03:07:31Z</time>
      </trkpt>
      <trkpt lat="46.46844" lon="2.46205">
        <ele>301</ele>
        <time>2016-10-04T03:09:31Z</time>
      </trkpt>
      <trkpt lat="46.46738" lon="2.46028">
        <ele>301</ele>
        <time>2016-10-04T03:11:31Z</time>
      </trkpt>
      <trkpt lat="46.46715" lon="2.45977">
        <ele>301</ele>
        <time>2016-10-04T03:13:31Z</time>
      </trkpt>
      <trkpt lat="46.46595" lon="2.4605">
        <ele>294</ele>
        <time>2016-10-04T03:15:31Z</time>
      </trkpt>
      <trkpt lat="46.4656" lon="2.46094">
        <ele>292</ele>
        <time>2016-10-04T03:17:31Z</time>
      </trkpt>
      <trkpt lat="46.4649" lon="2.46168">
        <ele>288</ele>
        <time>2016-10-04T03:19:31Z</time>
      </trkpt>
      <trkpt lat="46.46464" lon="2.46271">
        <ele>284</ele>
        <time>2016-10-04T03:21:31Z</time>
      </trkpt>
      <trkpt lat="46.46394" lon="2.46187">
        <ele>287</ele>
        <time>2016-10-04T03:23:31Z</time>
      </trkpt>
      <trkpt lat="46.4635" lon="2.46202">
        <ele>290</ele>
        <time>2016-10-04T03:25:31Z</time>
      </trkpt>
      <trkpt lat="46.46281" lon="2.46384">
        <ele>302</ele>
        <time>2016-10-04T03:27:31Z</time>
      </trkpt>
      <trkpt lat="46.46141" lon="2.46562">
        <ele>312</ele>
        <time>2016-10-04T03:29:31Z</time>
      </trkpt>
      <trkpt lat="46.45922" lon="2.46775">
        <ele>322</ele>
        <time>2016-10-04T03:31:31Z</time>
      </trkpt>
      <trkpt lat="46.45888" lon="2.46814">
        <ele>319</ele>
        <time>2016-10-04T03:33:31Z</time>
      </trkpt>
      <trkpt lat="46.45847" lon="2.46839">
        <ele>316</ele>
        <time>2016-10-04T03:35:31Z</time>
      </trkpt>
      <trkpt lat="46.4574" lon="2.47036">
        <ele>318</ele>
        <time>2016-10-04T03:37:31Z</time>
      </trkpt>
      <trkpt lat="46.45737" lon="2.47081">
        <ele>318</ele>
        <time>2016-10-04T03:39:31Z</time>
      </trkpt>
      <trkpt lat="46.45775" lon="2.47283">
        <ele>316</ele>
        <time>2016-10-04T03:41:31Z</time>
      </trkpt>
      <trkpt lat="46.45724" lon="2.47299">
        <ele>315</ele>
        <time>2016-10-04T03:43:31Z</time>
      </trkpt>
      <trkpt lat="46.45682" lon="2.47398">
        <ele>312</ele>
        <time>2016-10-04T03:45:31Z</time>
      </trkpt>
      <trkpt lat="46.45448" lon="2.4744">
        <ele>312</ele>
        <time>2016-10-04T03:47:31Z</time>
      </trkpt>
      <trkpt lat="46.45196" lon="2.47647">
        <ele>312</ele>
        <time>2016-10-04T03:49:31Z</time>
      </trkpt>
      <trkpt lat="46.45161" lon="2.47526">
        <ele>314</ele>
        <time>2016-10-04T03:51:31Z</time>
      </trkpt>
      <trkpt lat="46.44996" lon="2.47108">
        <ele>322</ele>
        <time>2016-10-04T03:53:31Z</time>
      </trkpt>
      <trkpt lat="46.44952" lon="2.46978">
        <ele>326</ele>
        <time>2016-10-04T03:55:31Z</time>
      </trkpt>
      <trkpt lat="46.44906" lon="2.46826">
        <ele>328</ele>
        <time>2016-10-04T03:57:31Z</time>
      </trkpt>
      <trkpt lat="46.44855" lon="2.46686">
        <ele>329</ele>
        <time>2016-10-04T03:59:31Z</time>
      </trkpt>
      <trkpt lat="46.44788" lon="2.46488">
        <ele>333</ele>
        <time>2016-10-04T04:01:31Z</time>
      </trkpt>
      <trkpt lat="46.44784" lon="2.46274">
        <ele>330</ele>
        <time>2016-10-04T04:03:31Z</time>
      </trkpt>
      <trkpt lat="46.44833" lon="2.46141">
        <ele>328</ele>
        <time>2016-10-04T04:05:31Z</time>
      </trkpt>
      <trkpt lat="46.44863" lon="2.46016">
        <ele>328</ele>
        <time>2016-10-04T04:07:31Z</time>
      </trkpt>
      <trkpt lat="46.44833" lon="2.45832">
        <ele>325</ele>
        <time>2016-10-04T04:09:31Z</time>
      </trkpt>
      <trkpt lat="46.44767" lon="2.45802">
        <ele>329</ele>
        <time>2016-10-04T04:11:31Z</time>
      </trkpt>
      <trkpt lat="46.44711" lon="2.45766">
        <ele>334</ele>
        <time>2016-10-04T04:13:31Z</time>
      </trkpt>
      <trkpt lat="46.44657" lon="2.45799">
        <ele>337</ele>
        <time>2016-10-04T04:15:31Z</time>
      </trkpt>
      <trkpt lat="46.44576" lon="2.45788">
        <ele>341</ele>
        <time>2016-10-04T04:17:31Z</time>
      </trkpt>
      <trkpt lat="46.44509" lon="2.45778">
        <ele>341</ele>
        <time>2016-10-04T04:19:31Z</time>
      </trkpt>
      <trkpt lat="46.44462" lon="2.45746">
        <ele>340</ele>
        <time>2016-10-04T04:21:31Z</time>
      </trkpt>
      <trkpt lat="46.44372" lon="2.4561">
        <ele>342</ele>
        <time>2016-10-04T04:23:31Z</time>
      </trkpt>
      <trkpt lat="46.44296" lon="2.45481">
        <ele>346</ele>
        <time>2016-10-04T04:25:31Z</time>
      </trkpt>
      <trkpt lat="46.44258" lon="2.45358">
        <ele>348</ele>
        <time>2016-10-04T04:27:31Z</time>
      </trkpt>
      <trkpt lat="46.44157" lon="2.45135">
        <ele>351</ele>
        <time>2016-10-04T04:29:31Z</time>
      </trkpt>
      <trkpt lat="46.44098" lon="2.44958">
        <ele>354</ele>
        <time>2016-10-04T04:31:31Z</time>
      </trkpt>
      <trkpt lat="46.4402" lon="2.44843">
        <ele>358</ele>
        <time>2016-10-04T04:33:31Z</time>
      </trkpt>
      <trkpt lat="46.43979" lon="2.44741">
        <ele>361</ele>
        <time>2016-10-04T04:35:31Z</time>
      </trkpt>
      <trkpt lat="46.43906" lon="2.4448">
        <ele>367</ele>
        <time>2016-10-04T04:37:31Z</time>
      </trkpt>
      <trkpt lat="46.43622" lon="2.44517">
        <ele>360</ele>
        <time>2016-10-04T04:39:31Z</time>
      </trkpt>
      <trkpt lat="46.43463" lon="2.44617">
        <ele>359</ele>
        <time>2016-10-04T04:41:31Z</time>
      </trkpt>
      <trkpt lat="46.43295" lon="2.44714">
        <ele>363</ele>
        <time>2016-10-04T04:43:31Z</time>
      </trkpt>
      <trkpt lat="46.43139" lon="2.44705">
        <ele>371</ele>
        <time>2016-10-04T04:45:31Z</time>
      </trkpt>
      <trkpt lat="46.42921" lon="2.4474">
        <ele>379</ele>
        <time>2016-10-04T04:47:31Z</time>
      </trkpt>
      <trkpt lat="46.42753" lon="2.4475">
        <ele>381</ele>
        <time>2016-10-04T04:49:31Z</time>
      </trkpt>
      <trkpt lat="46.42656" lon="2.44745">
        <ele>383</ele>
        <time>2016-10-04T04:51:31Z</time>
      </trkpt>
      <trkpt lat="46.42545" lon="2.44691">
        <ele>381</ele>
        <time>2016-10-04T04:53:31Z</time>
      </trkpt>
      <trkpt lat="46.42536" lon="2.4477">
        <ele>380</ele>
        <time>2016-10-04T04:55:31Z</time>
      </trkpt>
      <trkpt lat="46.42396" lon="2.44813">
        <ele>373</ele>
        <time>2016-10-04T04:57:31Z</time>
      </trkpt>
      <trkpt lat="46.42319" lon="2.44895">
        <ele>367</ele>
        <time>2016-10-04T04:59:31Z</time>
      </trkpt>
      <trkpt lat="46.42302" lon="2.44972">
        <ele>364</ele>
        <time>2016-10-04T05:01:31Z</time>
      </trkpt>
      <trkpt lat="46.42276" lon="2.45006">
        <ele>362</ele>
        <time>2016-10-04T05:03:31Z</time>
      </trkpt>
      <trkpt lat="46.42207" lon="2.44973">
        <ele>360</ele>
        <time>2016-10-04T05:05:31Z</time>
      </trkpt>
      <trkpt lat="46.42132" lon="2.45011">
        <ele>356</ele>
        <time>2016-10-04T05:07:31Z</time>
      </trkpt>
      <trkpt lat="46.42065" lon="2.45079">
        <ele>351</ele>
        <time>2016-10-04T05:09:31Z</time>
      </trkpt>
      <trkpt lat="46.42035" lon="2.45175">
        <ele>344</ele>
        <time>2016-10-04T05:11:31Z</time>
      </trkpt>
      <trkpt lat="46.41959" lon="2.45152">
        <ele>343</ele>
        <time>2016-10-04T05:13:31Z</time>
      </trkpt>
      <trkpt lat="46.41899" lon="2.45166">
        <ele>340</ele>
        <time>2016-10-04T05:15:31Z</time>
      </trkpt>
      <trkpt lat="46.41826" lon="2.44973">
        <ele>337</ele>
        <time>2016-10-04T05:17:31Z</time>
      </trkpt>
      <trkpt lat="46.41807" lon="2.44904">
        <ele>337</ele>
        <time>2016-10-04T05:19:31Z</time>
      </trkpt>
      <trkpt lat="46.41567" lon="2.44878">
        <ele>330</ele>
        <time>2016-10-04T05:21:31Z</time>
      </trkpt>
      <trkpt lat="46.41535" lon="2.44932">
        <ele>333</ele>
        <time>2016-10-04T05:23:31Z</time>
      </trkpt>
      <trkpt lat="46.41523" lon="2.45023">
        <ele>336</ele>
        <time>2016-10-04T05:25:31Z</time>
      </trkpt>
      <trkpt lat="46.41474" lon="2.45047">
        <ele>342</ele>
        <time>2016-10-04T05:27:31Z</time>
      </trkpt>
      <trkpt lat="46.41437" lon="2.45091">
        <ele>345</ele>
        <time>2016-10-04T05:29:31Z</time>
      </trkpt>
      <trkpt lat="46.41394" lon="2.45082">
        <ele>347</ele>
        <time>2016-10-04T05:31:31Z</time>
      </trkpt>
      <trkpt lat="46.41402" lon="2.45165">
        <ele>346</ele>
        <time>2016-10-04T05:33:31Z</time>
      </trkpt>
      <trkpt lat="46.41315" lon="2.45182">
        <ele>345</ele>
        <time>2016-10-04T05:35:31Z</time>
      </trkpt>
      <trkpt lat="46.41246" lon="2.45245">
        <ele>343</ele>
        <time>2016-10-04T05:37:31Z</time>
      </trkpt>
      <trkpt lat="46.4123" lon="2.45358">
        <ele>341</ele>
        <time>2016-10-04T05:39:31Z</time>
      </trkpt>
      <trkpt lat="46.41107" lon="2.4545">
        <ele>335</ele>
        <time>2016-10-04T05:41:31Z</time>
      </trkpt>
      <trkpt lat="46.41055" lon="2.45479">
        <ele>332</ele>
        <time>2016-10-04T05:43:31Z</time>
      </trkpt>
      <trkpt lat="46.41018" lon="2.45427">
        <ele>333</ele>
        <time>2016-10-04T05:45:31Z</time>
      </trkpt>
      <trkpt lat="46.41021" lon="2.45356">
        <ele>334</ele>
        <time>2016-10-04T05:47:31Z</time>
      </trkpt>
      <trkpt lat="46.41019" lon="2.45293">
        <ele>334</ele>
        <time>2016-10-04T05:49:31Z</time>
      </trkpt>
      <trkpt lat="46.41014" lon="2.45236">
        <ele>334</ele>
        <time>2016-10-04T05:51:31Z</time>
      </trkpt>
      <trkpt lat="46.4095" lon="2.44984">
        <ele>336</ele>
        <time>2016-10-04T05:53:31Z</time>
      </trkpt>
      <trkpt lat="46.4088" lon="2.45044">
        <ele>333</ele>
        <time>2016-10-04T05:55:31Z</time>
      </trkpt>
      <trkpt lat="46.40813" lon="2.4506">
        <ele>330</ele>
        <time>2016-10-04T05:57:31Z</time>
      </trkpt>
      <trkpt lat="46.40732" lon="2.45071">
        <ele>326</ele>
        <time>2016-10-04T05:59:31Z</time>
      </trkpt>
      <trkpt lat="46.40673" lon="2.45106">
        <ele>325</ele>
        <time>2016-10-04T06:01:31Z</time>
      </trkpt>
      <trkpt lat="46.40597" lon="2.45124">
        <ele>320</ele>
        <time>2016-10-04T06:03:31Z</time>
      </trkpt>
      <trkpt lat="46.40536" lon="2.45265">
        <ele>310</ele>
        <time>2016-10-04T06:05:31Z</time>
      </trkpt>
      <trkpt lat="46.40503" lon="2.45194">
        <ele>308</ele>
        <time>2016-10-04T06:07:31Z</time>
      </trkpt>
      <trkpt lat="46.4045" lon="2.45224">
        <ele>305</ele>
        <time>2016-10-04T06:09:31Z</time>
      </trkpt>
      <trkpt lat="46.40434" lon="2.4518">
        <ele>305</ele>
        <time>2016-10-04T06:11:31Z</time>
      </trkpt>
      <trkpt lat="46.40389" lon="2.45237">
        <ele>307</ele>
        <time>2016-10-04T06:13:31Z</time>
      </trkpt>
      <trkpt lat="46.40327" lon="2.45237">
        <ele>313</ele>
        <time>2016-10-04T06:15:31Z</time>
      </trkpt>
      <trkpt lat="46.40252" lon="2.45211">
        <ele>322</ele>
        <time>2016-10-04T06:17:31Z</time>
      </trkpt>
      <trkpt lat="46.4014" lon="2.45305">
        <ele>334</ele>
        <time>2016-10-04T06:19:31Z</time>
      </trkpt>
      <trkpt lat="46.40049" lon="2.45322">
        <ele>339</ele>
        <time>2016-10-04T06:21:31Z</time>
      </trkpt>
      <trkpt lat="46.39982" lon="2.4538">
        <ele>342</ele>
        <time>2016-10-04T06:23:31Z</time>
      </trkpt>
      <trkpt lat="46.3998" lon="2.4531">
        <ele>342</ele>
        <time>2016-10-04T06:25:31Z</time>
      </trkpt>
      <trkpt lat="46.3989" lon="2.45299">
        <ele>346</ele>
        <time>2016-10-04T06:27:31Z</time>
      </trkpt>
      <trkpt lat="46.39747" lon="2.45247">
        <ele>350</ele>
        <time>2016-10-04T06:29:31Z</time>
      </trkpt>
      <trkpt lat="46.39654" lon="2.45186">
        <ele>352</ele>
        <time>2016-10-04T06:31:31Z</time>
      </trkpt>
      <trkpt lat="46.39663" lon="2.45149">
        <ele>352</ele>
        <time>2016-10-04T06:33:31Z</time>
      </trkpt>
      <trkpt lat="46.39642" lon="2.45054">
        <ele>354</ele>
        <time>2016-10-04T06:35:31Z</time>
      </trkpt>
      <trkpt lat="46.39495" lon="2.45263">
        <ele>355</ele>
        <time>2016-10-04T06:37:31Z</time>
      </trkpt>
      <trkpt lat="46.39104" lon="2.44678">
        <ele>362</ele>
        <time>2016-10-04T06:39:31Z</time>
      </trkpt>
      <trkpt lat="46.38867" lon="2.44991">
        <ele>367</ele>
        <time>2016-10-04T06:41:31Z</time>
      </trkpt>
      <trkpt lat="46.38829" lon="2.44975">
        <ele>369</ele>
        <time>2016-10-04T06:43:31Z</time>
      </trkpt>
      <trkpt lat="46.38543" lon="2.45009">
        <ele>379</ele>
        <time>2016-10-04T06:45:31Z</time>
      </trkpt>
      <trkpt lat="46.38335" lon="2.45092">
        <ele>371</ele>
        <time>2016-10-04T06:47:31Z</time>
      </trkpt>
      <trkpt lat="46.38275" lon="2.45103">
        <ele>369</ele>
        <time>2016-10-04T06:49:31Z</time>
      </trkpt>
      <trkpt lat="46.38204" lon="2.45206">
        <ele>365</ele>
        <time>2016-10-04T06:51:31Z</time>
      </trkpt>
      <trkpt lat="46.38139" lon="2.45243">
        <ele>365</ele>
        <time>2016-10-04T06:53:31Z</time>
      </trkpt>
      <trkpt lat="46.38051" lon="2.45152">
        <ele>366</ele>
        <time>2016-10-04T06:55:31Z</time>
      </trkpt>
      <trkpt lat="46.38053" lon="2.45005">
        <ele>367</ele>
        <time>2016-10-04T06:57:31Z</time>
      </trkpt>
      <trkpt lat="46.37944" lon="2.45022">
        <ele>364</ele>
        <time>2016-10-04T06:59:31Z</time>
      </trkpt>
      <trkpt lat="46.37915" lon="2.45051">
        <ele>362</ele>
        <time>2016-10-04T07:01:31Z</time>
      </trkpt>
      <trkpt lat="46.37891" lon="2.45105">
        <ele>359</ele>
        <time>2016-10-04T07:03:31Z</time>
      </trkpt>
      <trkpt lat="46.37765" lon="2.45183">
        <ele>346</ele>
        <time>2016-10-04T07:05:31Z</time>
      </trkpt>
      <trkpt lat="46.3776" lon="2.45358">
        <ele>338</ele>
        <time>2016-10-04T07:07:31Z</time>
      </trkpt>
      <trkpt lat="46.37753" lon="2.45412">
        <ele>336</ele>
        <time>2016-10-04T07:09:31Z</time>
      </trkpt>
      <trkpt lat="46.37793" lon="2.45469">
        <ele>336</ele>
        <time>2016-10-04T07:11:31Z</time>
      </trkpt>
      <trkpt lat="46.37843" lon="2.45598">
        <ele>333</ele>
        <time>2016-10-04T07:13:31Z</time>
      </trkpt>
      <trkpt lat="46.37811" lon="2.4563">
        <ele>329</ele>
        <time>2016-10-04T07:15:31Z</time>
      </trkpt>
      <trkpt lat="46.37781" lon="2.45732">
        <ele>326</ele>
        <time>2016-10-04T07:17:31Z</time>
      </trkpt>
      <trkpt lat="46.3779" lon="2.45848">
        <ele>317</ele>
        <time>2016-10-04T07:19:31Z</time>
      </trkpt>
      <trkpt lat="46.37748" lon="2.45962">
        <ele>308</ele>
        <time>2016-10-04T07:21:31Z</time>
      </trkpt>
      <trkpt lat="46.37722" lon="2.46027">
        <ele>302</ele>
        <time>2016-10-04T07:23:31Z</time>
      </trkpt>
      <trkpt lat="46.37682" lon="2.46054">
        <ele>300</ele>
        <time>2016-10-04T07:25:31Z</time>
      </trkpt>
      <trkpt lat="46.37674" lon="2.46118">
        <ele>298</ele>
        <time>2016-10-04T07:27:31Z</time>
      </trkpt>
      <trkpt lat="46.37717" lon="2.46145">
        <ele>299</ele>
        <time>2016-10-04T07:29:31Z</time>
      </trkpt>
      <trkpt lat="46.37725" lon="2.46195">
        <ele>299</ele>
        <time>2016-10-04T07:31:31Z</time>
      </trkpt>
      <trkpt lat="46.37779" lon="2.46213">
        <ele>305</ele>
        <time>2016-10-04T07:33:31Z</time>
      </trkpt>
      <trkpt lat="46.37837" lon="2.46291">
        <ele>308</ele>
        <time>2016-10-04T07:35:31Z</time>
      </trkpt>
      <trkpt lat="46.37842" lon="2.46372">
        <ele>302</ele>
        <time>2016-10-04T07:37:31Z</time>
      </trkpt>
      <trkpt lat="46.37835" lon="2.46484">
        <ele>298</ele>
        <time>2016-10-04T07:39:31Z</time>
      </trkpt>
      <trkpt lat="46.37866" lon="2.46533">
        <ele>303</ele>
        <time>2016-10-04T07:41:31Z</time>
      </trkpt>
      <trkpt lat="46.37899" lon="2.46561">
        <ele>308</ele>
        <time>2016-10-04T07:43:31Z</time>
      </trkpt>
      <trkpt lat="46.37915" lon="2.46634">
        <ele>308</ele>
        <time>2016-10-04T07:45:31Z</time>
      </trkpt>
      <trkpt lat="46.37926" lon="2.46731">
        <ele>300</ele>
        <time>2016-10-04T07:47:31Z</time>
      </trkpt>
      <trkpt lat="46.37972" lon="2.46761">
        <ele>305</ele>
        <time>2016-10-04T07:49:31Z</time>
      </trkpt>
      <trkpt lat="46.37951" lon="2.46813">
        <ele>300</ele>
        <time>2016-10-04T07:51:31Z</time>
      </trkpt>
      <trkpt lat="46.37975" lon="2.46862">
        <ele>305</ele>
        <time>2016-10-04T07:53:31Z</time>
      </trkpt>
      <trkpt lat="46.37946" lon="2.46899">
        <ele>302</ele>
        <time>2016-10-04T07:55:31Z</time>
      </trkpt>
      <trkpt lat="46.37911" lon="2.46921">
        <ele>298</ele>
        <time>2016-10-04T07:57:31Z</time>
      </trkpt>
      <trkpt lat="46.37874" lon="2.4691">
        <ele>294</ele>
        <time>2016-10-04T07:59:31Z</time>
      </trkpt>
      <trkpt lat="46.37834" lon="2.46969">
        <ele>292</ele>
        <time>2016-10-04T08:01:31Z</time>
      </trkpt>
      <trkpt lat="46.37803" lon="2.47069">
        <ele>295</ele>
        <time>2016-10-04T08:03:31Z</time>
      </trkpt>
      <trkpt lat="46.37787" lon="2.47117">
        <ele>295</ele>
        <time>2016-10-04T08:05:31Z</time>
      </trkpt>
      <trkpt lat="46.37758" lon="2.47149">
        <ele>296</ele>
        <time>2016-10-04T08:07:31Z</time>
      </trkpt>
      <trkpt lat="46.37799" lon="2.47146">
        <ele>294</ele>
        <time>2016-10-04T08:09:31Z</time>
      </trkpt>
      <trkpt lat="46.37808" lon="2.4721">
        <ele>294</ele>
        <time>2016-10-04T08:11:31Z</time>
      </trkpt>
      <trkpt lat="46.37784" lon="2.47187">
        <ele>295</ele>
        <time>2016-10-04T08:13:31Z</time>
      </trkpt>
      <trkpt lat="46.37709" lon="2.47214">
        <ele>301</ele>
        <time>2016-10-04T08:15:31Z</time>
      </trkpt>
      <trkpt lat="46.37646" lon="2.47258">
        <ele>307</ele>
        <time>2016-10-04T08:17:31Z</time>
      </trkpt>
      <trkpt lat="46.37604" lon="2.47347">
        <ele>317</ele>
        <time>2016-10-04T08:19:31Z</time>
      </trkpt>
      <trkpt lat="46.37577" lon="2.47378">
        <ele>320</ele>
        <time>2016-10-04T08:21:31Z</time>
      </trkpt>
      <trkpt lat="46.37541" lon="2.47574">
        <ele>324</ele>
        <time>2016-10-04T08:23:31Z</time>
      </trkpt>
      <trkpt lat="46.37515" lon="2.47598">
        <ele>325</ele>
        <time>2016-10-04T08:25:31Z</time>
      </trkpt>
      <trkpt lat="46.37525" lon="2.47635">
        <ele>324</ele>
        <time>2016-10-04T08:27:31Z</time>
      </trkpt>
      <trkpt lat="46.37542" lon="2.47758">
        <ele>319</ele>
        <time>2016-10-04T08:29:31Z</time>
      </trkpt>
      <trkpt lat="46.37528" lon="2.47792">
        <ele>318</ele>
        <time>2016-10-04T08:31:31Z</time>
      </trkpt>
      <trkpt lat="46.37465" lon="2.47791">
        <ele>324</ele>
        <time>2016-10-04T08:33:31Z</time>
      </trkpt>
      <trkpt lat="46.37462" lon="2.47841">
        <ele>323</ele>
        <time>2016-10-04T08:35:31Z</time>
      </trkpt>
      <trkpt lat="46.37502" lon="2.47869">
        <ele>318</ele>
        <time>2016-10-04T08:37:31Z</time>
      </trkpt>
      <trkpt lat="46.37494" lon="2.47952">
        <ele>317</ele>
        <time>2016-10-04T08:39:31Z</time>
      </trkpt>
      <trkpt lat="46.37442" lon="2.48018">
        <ele>320</ele>
        <time>2016-10-04T08:41:31Z</time>
      </trkpt>
      <trkpt lat="46.37399" lon="2.48054">
        <ele>323</ele>
        <time>2016-10-04T08:43:31Z</time>
      </trkpt>
      <trkpt lat="46.37565" lon="2.48654">
        <ele>312</ele>
        <time>2016-10-04T08:45:31Z</time>
      </trkpt>
      <trkpt lat="46.37644" lon="2.48938">
        <ele>308</ele>
        <time>2016-10-04T08:47:31Z</time>
      </trkpt>
      <trkpt lat="46.37633" lon="2.49049">
        <ele>306</ele>
        <time>2016-10-04T08:49:31Z</time>
      </trkpt>
      <trkpt lat="46.37593" lon="2.49158">
        <ele>305</ele>
        <time>2016-10-04T08:51:31Z</time>
      </trkpt>
      <trkpt lat="46.37651" lon="2.49339">
        <ele>300</ele>
        <time>2016-10-04T08:53:31Z</time>
      </trkpt>
      <trkpt lat="46.37693" lon="2.49444">
        <ele>295</ele>
        <time>2016-10-04T08:55:31Z</time>
      </trkpt>
      <trkpt lat="46.37798" lon="2.49514">
        <ele>288</ele>
        <time>2016-10-04T08:57:31Z</time>
      </trkpt>
      <trkpt lat="46.37809" lon="2.49654">
        <ele>285</ele>
        <time>2016-10-04T08:59:31Z</time>
      </trkpt>
      <trkpt lat="46.3783" lon="2.49838">
        <ele>285</ele>
        <time>2016-10-04T09:01:31Z</time>
      </trkpt>
      <trkpt lat="46.37833" lon="2.49947">
        <ele>283</ele>
        <time>2016-10-04T09:03:31Z</time>
      </trkpt>
      <trkpt lat="46.37893" lon="2.50199">
        <ele>274</ele>
        <time>2016-10-04T09:05:31Z</time>
      </trkpt>
      <trkpt lat="46.37888" lon="2.50278">
        <ele>272</ele>
        <time>2016-10-04T09:07:31Z</time>
      </trkpt>
      <trkpt lat="46.37941" lon="2.50417">
        <ele>265</ele>
        <time>2016-10-04T09:09:31Z</time>
      </trkpt>
      <trkpt lat="46.38004" lon="2.50515">
        <ele>260</ele>
        <time>2016-10-04T09:11:31Z</time>
      </trkpt>
      <trkpt lat="46.37986" lon="2.5058">
        <ele>255</ele>
        <time>2016-10-04T09:13:31Z</time>
      </trkpt>
      <trkpt lat="46.37988" lon="2.50697">
        <ele>253</ele>
        <time>2016-10-04T09:15:31Z</time>
      </trkpt>
      <trkpt lat="46.37998" lon="2.50781">
        <ele>251</ele>
        <time>2016-10-04T09:17:31Z</time>
      </trkpt>
      <trkpt lat="46.37952" lon="2.50777">
        <ele>253</ele>
        <time>2016-10-04T09:19:31Z</time>
      </trkpt>
      <trkpt lat="46.37927" lon="2.50756">
        <ele>254</ele>
        <time>2016-10-04T09:21:31Z</time>
      </trkpt>
      <trkpt lat="46.37888" lon="2.50774">
        <ele>254</ele>
        <time>2016-10-04T09:23:31Z</time>
      </trkpt>
      <trkpt lat="46.37879" lon="2.50976">
        <ele>250</ele>
        <time>2016-10-04T09:25:31Z</time>
      </trkpt>
      <trkpt lat="46.37914" lon="2.51115">
        <ele>246</ele>
        <time>2016-10-04T09:27:31Z</time>
      </trkpt>
      <trkpt lat="46.37951" lon="2.51264">
        <ele>243</ele>
        <time>2016-10-04T09:29:31Z</time>
      </trkpt>
      <trkpt lat="46.37877" lon="2.51289">
        <ele>241</ele>
        <time>2016-10-04T09:31:31Z</time>
      </trkpt>
      <trkpt lat="46.37829" lon="2.51327">
        <ele>239</ele>
        <time>2016-10-04T09:33:31Z</time>
      </trkpt>
      <trkpt lat="46.37803" lon="2.514">
        <ele>238</ele>
        <time>2016-10-04T09:35:31Z</time>
      </trkpt>
      <trkpt lat="46.37707" lon="2.51466">
        <ele>242</ele>
        <time>2016-10-04T09:37:31Z</time>
      </trkpt>
      <trkpt lat="46.37623" lon="2.51495">
        <ele>244</ele>
        <time>2016-10-04T09:39:31Z</time>
      </trkpt>
      <trkpt lat="46.37637" lon="2.51527">
        <ele>243</ele>
        <time>2016-10-04T09:41:31Z</time>
      </trkpt>
      <trkpt lat="46.37586" lon="2.51546">
        <ele>243</ele>
        <time>2016-10-04T09:43:31Z</time>
      </trkpt>
      <trkpt lat="46.37443" lon="2.51806">
        <ele>244</ele>
        <time>2016-10-04T09:45:31Z</time>
      </trkpt>
      <trkpt lat="46.37373" lon="2.51798">
        <ele>248</ele>
        <time>2016-10-04T09:47:31Z</time>
      </trkpt>
      <trkpt lat="46.3733" lon="2.51828">
        <ele>249</ele>
        <time>2016-10-04T09:49:31Z</time>
      </trkpt>
      <trkpt lat="46.37324" lon="2.51862">
        <ele>248</ele>
        <time>2016-10-04T09:51:31Z</time>
      </trkpt>
      <trkpt lat="46.37324" lon="2.51916">
        <ele>247</ele>
        <time>2016-10-04T09:53:31Z</time>
      </trkpt>
      <trkpt lat="46.37335" lon="2.51963">
        <ele>245</ele>
        <time>2016-10-04T09:55:31Z</time>
      </trkpt>
      <trkpt lat="46.37379" lon="2.52024">
        <ele>242</ele>
        <time>2016-10-04T09:57:31Z</time>
      </trkpt>
      <trkpt lat="46.37172" lon="2.52164">
        <ele>237</ele>
        <time>2016-10-04T09:59:31Z</time>
      </trkpt>
      <trkpt lat="46.37101" lon="2.52341">
        <ele>231</ele>
        <time>2016-10-04T10:01:31Z</time>
      </trkpt>
      <trkpt lat="46.37055" lon="2.52501">
        <ele>224</ele>
        <time>2016-10-04T10:03:31Z</time>
      </trkpt>
      <trkpt lat="46.37018" lon="2.52531">
        <ele>222</ele>
        <time>2016-10-04T10:05:31Z</time>
      </trkpt>
      <trkpt lat="46.36971" lon="2.52448">
        <ele>222</ele>
        <time>2016-10-04T10:07:31Z</time>
      </trkpt>
      <trkpt lat="46.36939" lon="2.52491">
        <ele>223</ele>
        <time>2016-10-04T10:09:31Z</time>
      </trkpt>
      <trkpt lat="46.36938" lon="2.5255">
        <ele>223</ele>
        <time>2016-10-04T10:11:31Z</time>
      </trkpt>
      <trkpt lat="46.36837" lon="2.52646">
        <ele>230</ele>
        <time>2016-10-04T10:13:31Z</time>
      </trkpt>
      <trkpt lat="46.367" lon="2.52715">
        <ele>236</ele>
        <time>2016-10-04T10:15:31Z</time>
      </trkpt>
      <trkpt lat="46.36634" lon="2.52547">
        <ele>237</ele>
        <time>2016-10-04T10:17:31Z</time>
      </trkpt>
      <trkpt lat="46.36449" lon="2.52168">
        <ele>252</ele>
        <time>2016-10-04T10:19:31Z</time>
      </trkpt>
      <trkpt lat="46.36326" lon="2.52278">
        <ele>246</ele>
        <time>2016-10-04T10:21:31Z</time>
      </trkpt>
      <trkpt lat="46.3626" lon="2.52405">
        <ele>247</ele>
        <time>2016-10-04T10:23:31Z</time>
      </trkpt>
      <trkpt lat="46.36158" lon="2.52582">
        <ele>248</ele>
        <time>2016-10-04T10:25:31Z</time>
      </trkpt>
      <trkpt lat="46.36083" lon="2.52757">
        <ele>246</ele>
        <time>2016-10-04T10:27:31Z</time>
      </trkpt>
      <trkpt lat="46.36059" lon="2.52861">
        <ele>252</ele>
        <time>2016-10-04T10:29:31Z</time>
      </trkpt>
      <trkpt lat="46.36085" lon="2.52981">
        <ele>249</ele>
        <time>2016-10-04T10:31:31Z</time>
      </trkpt>
      <trkpt lat="46.36059" lon="2.5296">
        <ele>250</ele>
        <time>2016-10-04T10:33:31Z</time>
      </trkpt>
      <trkpt lat="46.36001" lon="2.53112">
        <ele>246</ele>
        <time>2016-10-04T10:35:31Z</time>
      </trkpt>
      <trkpt lat="46.35946" lon="2.53334">
        <ele>245</ele>
        <time>2016-10-04T10:37:31Z</time>
      </trkpt>
      <trkpt lat="46.35986" lon="2.53418">
        <ele>243</ele>
        <time>2016-10-04T10:39:31Z</time>
      </trkpt>
      <trkpt lat="46.35881" lon="2.5355">
        <ele>242</ele>
        <time>2016-10-04T10:41:31Z</time>
      </trkpt>
      <trkpt lat="46.35827" lon="2.53589">
        <ele>241</ele>
        <time>2016-10-04T10:43:31Z</time>
      </trkpt>
      <trkpt lat="46.35776" lon="2.53662">
        <ele>239</ele>
        <time>2016-10-04T10:45:31Z</time>
      </trkpt>
      <trkpt lat="46.35729" lon="2.53711">
        <ele>240</ele>
        <time>2016-10-04T10:47:31Z</time>
      </trkpt>
      <trkpt lat="46.35785" lon="2.53851">
        <ele>240</ele>
        <time>2016-10-04T10:49:31Z</time>
      </trkpt>
      <trkpt lat="46.35737" lon="2.53975">
        <ele>241</ele>
        <time>2016-10-04T10:51:31Z</time>
      </trkpt>
      <trkpt lat="46.35706" lon="2.54034">
        <ele>240</ele>
        <time>2016-10-04T10:53:31Z</time>
      </trkpt>
      <trkpt lat="46.35694" lon="2.54222">
        <ele>239</ele>
        <time>2016-10-04T10:55:31Z</time>
      </trkpt>
      <trkpt lat="46.35623" lon="2.54423">
        <ele>244</ele>
        <time>2016-10-04T10:57:31Z</time>
      </trkpt>
      <trkpt lat="46.35734" lon="2.54503">
        <ele>236</ele>
        <time>2016-10-04T10:59:31Z</time>
      </trkpt>
      <trkpt lat="46.35701" lon="2.54934">
        <ele>235</ele>
        <time>2016-10-04T11:01:31Z</time>
      </trkpt>
      <trkpt lat="46.35681" lon="2.55128">
        <ele>236</ele>
        <time>2016-10-04T11:03:31Z</time>
      </trkpt>
      <trkpt lat="46.35629" lon="2.55314">
        <ele>242</ele>
        <time>2016-10-04T11:05:31Z</time>
      </trkpt>
      <trkpt lat="46.35538" lon="2.55479">
        <ele>248</ele>
        <time>2016-10-04T11:07:31Z</time>
      </trkpt>
      <trkpt lat="46.35505" lon="2.55597">
        <ele>248</ele>
        <time>2016-10-04T11:09:31Z</time>
      </trkpt>
      <trkpt lat="46.35439" lon="2.55673">
        <ele>244</ele>
        <time>2016-10-04T11:11:31Z</time>
      </trkpt>
      <trkpt lat="46.35371" lon="2.55761">
        <ele>237</ele>
        <time>2016-10-04T11:13:31Z</time>
      </trkpt>
      <trkpt lat="46.35409" lon="2.55783">
        <ele>237</ele>
        <time>2016-10-04T11:15:31Z</time>
      </trkpt>
      <trkpt lat="46.35471" lon="2.55774">
        <ele>241</ele>
        <time>2016-10-04T11:17:31Z</time>
      </trkpt>
      <trkpt lat="46.35555" lon="2.55815">
        <ele>246</ele>
        <time>2016-10-04T11:19:31Z</time>
      </trkpt>
      <trkpt lat="46.35727" lon="2.55935">
        <ele>247</ele>
        <time>2016-10-04T11:21:31Z</time>
      </trkpt>
      <trkpt lat="46.35714" lon="2.5601">
        <ele>245</ele>
        <time>2016-10-04T11:23:31Z</time>
      </trkpt>
      <trkpt lat="46.35826" lon="2.56007">
        <ele>247</ele>
        <time>2016-10-04T11:25:31Z</time>
      </trkpt>
      <trkpt lat="46.35934" lon="2.56116">
        <ele>241</ele>
        <time>2016-10-04T11:27:31Z</time>
      </trkpt>
      <trkpt lat="46.36039" lon="2.56259">
        <ele>237</ele>
        <time>2016-10-04T11:29:31Z</time>
      </trkpt>
      <trkpt lat="46.36144" lon="2.56364">
        <ele>235</ele>
        <time>2016-10-04T11:31:31Z</time>
      </trkpt>
      <trkpt lat="46.36032" lon="2.56681">
        <ele>231</ele>
        <time>2016-10-04T11:33:31Z</time>
      </trkpt>
      <trkpt lat="46.36007" lon="2.56799">
        <ele>228</ele>
        <time>2016-10-04T11:35:31Z</time>
      </trkpt>
      <trkpt lat="46.3596" lon="2.56926">
        <ele>229</ele>
        <time>2016-10-04T11:37:31Z</time>
      </trkpt>
      <trkpt lat="46.35921" lon="2.56978">
        <ele>228</ele>
        <time>2016-10-04T11:39:31Z</time>
      </trkpt>
      <trkpt lat="46.35942" lon="2.57047">
        <ele>228</ele>
        <time>2016-10-04T11:41:31Z</time>
      </trkpt>
      <trkpt lat="46.35941" lon="2.57246">
        <ele>224</ele>
        <time>2016-10-04T11:43:31Z</time>
      </trkpt>
      <trkpt lat="46.35978" lon="2.5734">
        <ele>224</ele>
        <time>2016-10-04T11:45:31Z</time>
      </trkpt>
      <trkpt lat="46.36079" lon="2.57405">
        <ele>229</ele>
        <time>2016-10-04T11:47:31Z</time>
      </trkpt>
      <trkpt lat="46.36209" lon="2.57449">
        <ele>229</ele>
        <time>2016-10-04T11:49:31Z</time>
      </trkpt>
      <trkpt lat="46.36074" lon="2.57587">
        <ele>225</ele>
        <time>2016-10-04T11:51:31Z</time>
      </trkpt>
      <trkpt lat="46.35965" lon="2.57655">
        <ele>215</ele>
        <time>2016-10-04T11:53:31Z</time>
      </trkpt>
      <trkpt lat="46.35895" lon="2.57691">
        <ele>219</ele>
        <time>2016-10-04T11:55:31Z</time>
      </trkpt>
      <trkpt lat="46.35853" lon="2.57721">
        <ele>225</ele>
        <time>2016-10-04T11:57:31Z</time>
      </trkpt>
      <trkpt lat="46.35919" lon="2.57898">
        <ele>226</ele>
        <time>2016-10-04T11:59:31Z</time>
      </trkpt>
      <trkpt lat="46.36014" lon="2.58056">
        <ele>221</ele>
        <time>2016-10-04T12:01:31Z</time>
      </trkpt>
      <trkpt lat="46.36054" lon="2.58133">
        <ele>217</ele>
        <time>2016-10-04T12:03:31Z</time>
      </trkpt>
      <trkpt lat="46.36084" lon="2.58149">
        <ele>215</ele>
        <time>2016-10-04T12:05:31Z</time>
      </trkpt>
      <trkpt lat="46.3613" lon="2.58141">
        <ele>213</ele>
        <time>2016-10-04T12:07:31Z</time>
      </trkpt>
      <trkpt lat="46.36424" lon="2.57842">
        <ele>228</ele>
        <time>2016-10-04T12:09:31Z</time>
      </trkpt>
      <trkpt lat="46.36504" lon="2.5803">
        <ele>225</ele>
        <time>2016-10-04T12:11:31Z</time>
      </trkpt>
      <trkpt lat="46.36533" lon="2.58071">
        <ele>223</ele>
        <time>2016-10-04T12:13:31Z</time>
      </trkpt>
      <trkpt lat="46.36567" lon="2.58055">
        <ele>221</ele>
        <time>2016-10-04T12:15:31Z</time>
      </trkpt>
      <trkpt lat="46.36567" lon="2.58016">
        <ele>222</ele>
        <time>2016-10-04T12:17:31Z</time>
      </trkpt>
      <trkpt lat="46.36591" lon="2.57994">
        <ele>222</ele>
        <time>2016-10-04T12:19:31Z</time>
      </trkpt>
    </trkseg>
  </trk>
</gpx>